createdAt,value
2023-04-29T00:01:07.752Z,11.93
2023-04-29T00:03:35.314Z,12.90
2023-04-29T00:06:02.790Z,13.50
2023-04-29T00:08:30.072Z,14.40
2023-04-29T00:10:56.997Z,12.63
2023-04-29T00:13:23.986Z,17.70
2023-04-29T00:15:50.906Z,15.23
2023-04-29T00:18:17.821Z,12.90
2023-04-29T00:20:44.690Z,14.23
2023-04-29T00:23:11.933Z,15.97
2023-04-29T00:25:39.116Z,15.97
2023-04-29T00:28:06.534Z,12.97
2023-04-29T00:30:36.510Z,13.60
2023-04-29T00:33:03.840Z,19.90
2023-04-29T00:35:30.919Z,14.17
2023-04-29T00:37:58.287Z,14.07
2023-04-29T00:40:25.214Z,15.23
2023-04-29T00:42:52.192Z,14.70
2023-04-29T00:45:19.086Z,13.13
2023-04-29T00:47:46.042Z,15.63
2023-04-29T00:50:13.516Z,14.83
2023-04-29T00:52:40.621Z,18.00
2023-04-29T00:55:09.262Z,13.17
2023-04-29T00:57:36.273Z,11.50
2023-04-29T01:00:04.236Z,13.23
2023-04-29T01:02:31.597Z,13.83
2023-04-29T01:04:58.621Z,13.10
2023-04-29T01:07:43.076Z,15.23
2023-04-29T01:10:27.115Z,14.90
2023-04-29T01:13:14.843Z,16.00
2023-04-29T01:15:54.684Z,13.90
2023-04-29T01:18:28.972Z,13.50
2023-04-29T01:20:57.972Z,15.07
2023-04-29T01:23:29.407Z,14.97
2023-04-29T01:25:58.323Z,13.57
2023-04-29T01:28:54.767Z,13.77
2023-04-29T01:31:32.668Z,15.70
2023-04-29T01:34:08.597Z,15.73
2023-04-29T01:36:44.963Z,16.27
2023-04-29T01:39:21.462Z,16.83
2023-04-29T01:42:08.213Z,17.00
2023-04-29T01:44:36.704Z,16.07
2023-04-29T01:47:03.980Z,16.40
2023-04-29T01:49:37.895Z,18.60
2023-04-29T01:52:05.591Z,19.73
2023-04-29T01:54:36.447Z,20.60
2023-04-29T01:57:03.857Z,15.93
2023-04-29T01:59:59.909Z,16.00
2023-04-29T02:02:45.833Z,17.23
2023-04-29T02:05:24.913Z,17.10
2023-04-29T02:07:56.185Z,16.40
2023-04-29T02:10:23.324Z,16.80
2023-04-29T02:12:56.369Z,14.97
2023-04-29T02:15:27.847Z,15.43
2023-04-29T02:17:55.672Z,13.73
2023-04-29T02:20:22.655Z,16.53
2023-04-29T02:22:49.733Z,15.57
2023-04-29T02:25:16.788Z,18.50
2023-04-29T02:27:43.915Z,17.03
2023-04-29T02:30:11.408Z,16.60
2023-04-29T02:32:40.598Z,15.93
2023-04-29T02:35:08.525Z,16.03
2023-04-29T02:37:35.752Z,14.37
2023-04-29T02:40:03.550Z,15.80
2023-04-29T02:42:31.057Z,17.57
2023-04-29T02:44:58.493Z,15.90
2023-04-29T02:47:25.412Z,17.13
2023-04-29T02:49:52.674Z,18.00
2023-04-29T02:52:19.854Z,14.53
2023-04-29T02:54:47.853Z,15.57
2023-04-29T02:57:14.938Z,18.23
2023-04-29T02:59:42.318Z,18.27
2023-04-29T03:02:09.294Z,16.97
2023-04-29T03:04:36.265Z,17.17
2023-04-29T03:07:04.555Z,15.23
2023-04-29T03:09:31.967Z,16.73
2023-04-29T03:11:59.484Z,16.17
2023-04-29T03:14:26.484Z,14.73
2023-04-29T03:16:53.844Z,17.83
2023-04-29T03:19:20.805Z,19.53
2023-04-29T03:24:17.354Z,16.07
2023-04-29T03:26:44.627Z,15.30
2023-04-29T03:29:11.905Z,19.17
2023-04-29T03:31:38.877Z,16.20
2023-04-29T03:34:05.930Z,20.90
2023-04-29T03:36:36.839Z,17.43
2023-04-29T03:39:07.126Z,19.13
2023-04-29T03:41:34.191Z,16.50
2023-04-29T03:44:01.342Z,16.63
2023-04-29T03:46:29.752Z,18.17
2023-04-29T03:48:57.693Z,18.33
2023-04-29T03:51:25.917Z,18.10
2023-04-29T03:53:59.174Z,21.30
2023-04-29T03:56:26.861Z,22.03
2023-04-29T03:58:54.108Z,18.13
2023-04-29T04:01:23.269Z,19.30
2023-04-29T04:03:50.278Z,19.33
2023-04-29T04:06:17.323Z,19.93
2023-04-29T04:08:44.677Z,20.73
2023-04-29T04:11:21.309Z,20.43
2023-04-29T04:13:53.632Z,17.63
2023-04-29T04:16:20.721Z,22.37
2023-04-29T04:18:47.711Z,19.53
2023-04-29T04:21:14.880Z,22.10
2023-04-29T04:23:46.749Z,19.60
2023-04-29T04:26:20.583Z,16.23
2023-04-29T04:28:56.898Z,16.13
2023-04-29T04:31:32.894Z,19.00
2023-04-29T04:34:00.177Z,17.37
2023-04-29T04:36:29.957Z,23.53
2023-04-29T04:38:57.285Z,21.73
2023-04-29T04:41:24.262Z,24.77
2023-04-29T04:43:52.881Z,24.60
2023-04-29T04:46:40.236Z,21.50
2023-04-29T04:49:13.605Z,29.93
2023-04-29T04:51:48.481Z,23.60
2023-04-29T04:54:15.778Z,26.97
2023-04-29T04:56:43.157Z,28.23
2023-04-29T04:59:10.404Z,24.03
2023-04-29T05:01:40.365Z,28.70
2023-04-29T05:04:07.411Z,39.90
2023-04-29T05:06:34.391Z,34.53
2023-04-29T05:09:01.521Z,32.00
2023-04-29T05:11:28.378Z,35.30
2023-04-29T05:14:13.661Z,31.13
2023-04-29T05:16:40.673Z,31.33
2023-04-29T05:19:09.225Z,37.40
2023-04-29T05:21:39.614Z,32.60
2023-04-29T05:24:08.993Z,35.70
2023-04-29T05:26:36.160Z,35.13
2023-04-29T05:29:03.157Z,35.03
2023-04-29T05:31:37.441Z,42.33
2023-04-29T05:34:07.746Z,37.57
2023-04-29T05:36:34.678Z,41.23
2023-04-29T05:39:02.211Z,43.43
2023-04-29T05:41:30.266Z,44.50
2023-04-29T05:43:57.210Z,39.40
2023-04-29T05:46:24.303Z,40.97
2023-04-29T05:48:51.645Z,37.83
2023-04-29T05:51:18.785Z,38.13
2023-04-29T05:53:45.832Z,45.23
2023-04-29T05:56:12.843Z,41.57
2023-04-29T05:58:41.117Z,36.30
2023-04-29T06:01:08.103Z,33.97
2023-04-29T06:03:35.931Z,30.43
2023-04-29T06:06:21.391Z,29.93
2023-04-29T06:09:13.476Z,39.67
2023-04-29T06:11:45.610Z,32.90
2023-04-29T06:14:12.658Z,49.03
2023-04-29T06:16:42.697Z,40.17
2023-04-29T06:19:09.738Z,37.73
2023-04-29T06:21:36.703Z,33.97
2023-04-29T06:24:04.319Z,29.77
2023-04-29T06:26:31.360Z,38.57
2023-04-29T06:28:58.639Z,39.83
2023-04-29T06:31:25.796Z,38.77
2023-04-29T06:33:55.673Z,33.03
2023-04-29T06:36:23.803Z,32.50
2023-04-29T06:39:18.543Z,32.93
2023-04-29T06:42:14.968Z,38.47
2023-04-29T06:45:00.654Z,34.93
2023-04-29T06:47:40.773Z,34.70
2023-04-29T06:50:12.067Z,33.80
2023-04-29T06:52:38.989Z,34.80
2023-04-29T06:55:07.017Z,36.97
2023-04-29T06:57:34.157Z,32.93
2023-04-29T07:00:01.254Z,35.30
2023-04-29T07:02:28.362Z,30.43
2023-04-29T07:04:55.613Z,29.53
2023-04-29T07:07:23.043Z,26.90
2023-04-29T07:09:52.916Z,31.00
2023-04-29T07:12:20.842Z,30.10
2023-04-29T07:14:47.939Z,28.33
2023-04-29T07:17:15.004Z,31.20
2023-04-29T07:19:42.605Z,32.63
2023-04-29T07:22:10.991Z,30.63
2023-04-29T07:24:37.893Z,29.67
2023-04-29T07:27:04.820Z,30.67
2023-04-29T07:29:32.630Z,30.97
2023-04-29T07:31:59.899Z,35.37
2023-04-29T07:34:27.417Z,27.87
2023-04-29T07:36:54.549Z,31.47
2023-04-29T07:39:21.463Z,31.17
2023-04-29T07:41:55.156Z,31.43
2023-04-29T07:44:23.209Z,35.70
2023-04-29T07:46:50.108Z,25.30
2023-04-29T07:49:17.116Z,31.37
2023-04-29T07:51:44.387Z,30.13
2023-04-29T07:54:11.432Z,27.53
2023-04-29T07:56:38.270Z,29.07
2023-04-29T07:59:07.650Z,29.93
2023-04-29T08:01:34.517Z,33.30
2023-04-29T08:04:02.293Z,30.33
2023-04-29T08:06:30.894Z,28.03
2023-04-29T08:08:57.990Z,33.97
2023-04-29T08:11:26.152Z,32.37
2023-04-29T08:13:54.042Z,30.93
2023-04-29T08:16:21.858Z,33.87
2023-04-29T08:18:48.925Z,31.20
2023-04-29T08:21:16.012Z,34.60
2023-04-29T08:23:42.940Z,31.87
2023-04-29T08:26:11.223Z,36.10
2023-04-29T08:28:38.442Z,32.73
2023-04-29T08:31:10.567Z,32.53
2023-04-29T08:33:37.621Z,35.47
2023-04-29T08:36:04.847Z,33.70
2023-04-29T08:38:32.055Z,34.10
2023-04-29T08:40:58.933Z,34.70
2023-04-29T08:43:26.954Z,36.37
2023-04-29T08:45:54.251Z,39.10
2023-04-29T08:48:22.039Z,32.37
2023-04-29T08:50:49.055Z,33.43
2023-04-29T08:53:16.256Z,37.00
2023-04-29T08:55:45.854Z,34.90
2023-04-29T08:58:14.829Z,36.17
2023-04-29T09:00:43.759Z,35.40
2023-04-29T09:03:30.026Z,39.47
2023-04-29T09:06:00.712Z,35.97
2023-04-29T09:08:27.997Z,38.33
2023-04-29T09:10:56.268Z,41.13
2023-04-29T09:13:27.368Z,36.20
2023-04-29T09:15:55.159Z,39.70
2023-04-29T09:18:45.570Z,39.50
2023-04-29T09:21:24.363Z,39.90
2023-04-29T09:23:56.504Z,40.53
2023-04-29T09:26:24.307Z,38.63
2023-04-29T09:29:11.935Z,41.80
2023-04-29T09:31:42.233Z,43.97
2023-04-29T09:34:09.926Z,45.13
2023-04-29T09:36:51.427Z,48.13
2023-04-29T09:39:23.780Z,49.93
2023-04-29T09:41:51.507Z,53.60
2023-04-29T09:44:19.875Z,55.50
2023-04-29T09:47:04.993Z,48.13
2023-04-29T09:49:35.424Z,49.57
2023-04-29T09:52:04.212Z,44.90
2023-04-29T09:54:34.052Z,46.80
2023-04-29T09:57:05.899Z,43.27
2023-04-29T09:59:38.467Z,45.60
2023-04-29T10:02:15.307Z,48.40
2023-04-29T10:04:44.552Z,48.53
2023-04-29T10:07:17.242Z,46.20
2023-04-29T10:09:46.320Z,46.03
2023-04-29T10:12:17.565Z,46.23
2023-04-29T10:14:55.611Z,48.73
2023-04-29T10:17:37.116Z,49.03
2023-04-29T10:20:09.042Z,56.30
2023-04-29T10:22:47.926Z,58.00
2023-04-29T10:25:20.616Z,54.43
2023-04-29T10:27:49.051Z,49.80
2023-04-29T10:30:17.809Z,51.87
2023-04-29T10:35:22.987Z,49.37
2023-04-29T10:37:50.384Z,48.83
2023-04-29T10:40:21.077Z,44.00
2023-04-29T10:42:50.475Z,47.87
2023-04-29T10:45:23.911Z,45.73
2023-04-29T10:48:24.158Z,40.30
2023-04-29T10:50:51.030Z,47.97
2023-04-29T10:53:20.064Z,47.30
2023-04-29T10:55:56.624Z,45.23
2023-04-29T10:58:35.803Z,47.83
2023-04-29T11:01:03.534Z,42.70
2023-04-29T11:03:58.850Z,46.73
2023-04-29T11:06:37.814Z,40.07
2023-04-29T11:09:16.063Z,40.90
2023-04-29T11:11:44.143Z,43.60
2023-04-29T11:14:14.608Z,41.20
2023-04-29T11:16:49.768Z,41.63
2023-04-29T11:19:18.022Z,42.27
2023-04-29T11:21:47.003Z,42.37
2023-04-29T11:24:16.225Z,39.87
2023-04-29T11:26:44.476Z,40.30
2023-04-29T11:29:11.561Z,39.30
2023-04-29T11:31:39.664Z,39.50
2023-04-29T11:34:07.935Z,41.77
2023-04-29T11:36:36.076Z,39.03
2023-04-29T11:39:04.221Z,36.83
2023-04-29T11:41:31.821Z,43.40
2023-04-29T11:44:00.023Z,35.23
2023-04-29T11:46:30.191Z,39.57
2023-04-29T11:48:58.497Z,39.00
2023-04-29T11:51:25.414Z,40.20
2023-04-29T11:53:52.667Z,40.00
2023-04-29T11:56:25.438Z,38.97
2023-04-29T11:58:57.350Z,37.13
2023-04-29T12:01:26.580Z,37.30
2023-04-29T12:03:59.860Z,37.60
2023-04-29T12:06:30.684Z,36.20
2023-04-29T12:09:00.391Z,36.23
2023-04-29T12:11:28.901Z,30.17
2023-04-29T12:13:56.969Z,32.27
2023-04-29T12:16:24.397Z,29.13
2023-04-29T12:18:53.043Z,30.70
2023-04-29T12:21:20.028Z,31.47
2023-04-29T12:23:47.699Z,33.17
2023-04-29T12:26:15.042Z,34.93
2023-04-29T12:28:42.205Z,28.30
2023-04-29T12:31:11.593Z,30.03
2023-04-29T12:33:38.580Z,19.73
2023-04-29T12:36:17.888Z,20.30
2023-04-29T12:38:45.604Z,22.27
2023-04-29T12:41:14.483Z,20.17
2023-04-29T12:43:42.377Z,21.97
2023-04-29T12:46:13.050Z,15.07
2023-04-29T12:48:41.812Z,15.70
2023-04-29T12:51:10.525Z,12.93
2023-04-29T12:53:37.783Z,13.80
2023-04-29T12:56:06.294Z,17.10
2023-04-29T12:58:34.948Z,19.40
2023-04-29T13:01:02.043Z,16.23
2023-04-29T13:03:29.348Z,15.03
2023-04-29T13:05:57.360Z,18.10
2023-04-29T13:08:24.456Z,18.10
2023-04-29T13:10:51.621Z,24.87
2023-04-29T13:13:18.640Z,16.57
2023-04-29T13:15:45.513Z,15.40
2023-04-29T13:18:12.472Z,15.07
2023-04-29T13:20:42.247Z,13.37
2023-04-29T13:23:10.510Z,14.40
2023-04-29T13:25:37.454Z,18.30
2023-04-29T13:28:07.876Z,13.77
2023-04-29T13:30:35.152Z,12.03
2023-04-29T13:33:11.805Z,14.23
2023-04-29T13:35:41.675Z,13.40
2023-04-29T13:38:09.267Z,12.70
2023-04-29T13:40:41.793Z,12.73
2023-04-29T13:43:15.368Z,15.13
2023-04-29T13:45:47.875Z,11.83
2023-04-29T13:48:28.499Z,12.57
2023-04-29T13:54:17.362Z,10.63
2023-04-29T14:02:08.022Z,9.93
2023-04-29T14:04:07.074Z,11.97
2023-04-29T14:06:34.816Z,12.23
2023-04-29T14:09:03.656Z,10.77
2023-04-29T14:11:31.131Z,11.30
2023-04-29T14:13:58.070Z,9.10
2023-04-29T14:16:25.204Z,14.97
2023-04-29T14:18:52.332Z,8.53
2023-04-29T14:21:22.381Z,11.03
2023-04-29T14:23:50.332Z,9.43
2023-04-29T14:26:27.946Z,10.00
2023-04-29T14:28:59.819Z,8.50
2023-04-29T14:31:28.885Z,8.20
2023-04-29T14:33:57.179Z,7.87
2023-04-29T14:36:24.851Z,9.43
2023-04-29T14:38:51.806Z,10.07
2023-04-29T14:41:19.008Z,8.73
2023-04-29T14:43:46.615Z,8.07
2023-04-29T14:46:14.296Z,10.63
2023-04-29T14:48:41.223Z,8.83
2023-04-29T14:51:08.167Z,8.20
2023-04-29T14:53:35.185Z,8.77
2023-04-29T14:56:02.366Z,9.70
2023-04-29T14:58:29.341Z,12.87
2023-04-29T15:00:56.359Z,11.20
2023-04-29T15:03:23.710Z,10.17
2023-04-29T15:05:51.686Z,11.03
2023-04-29T15:08:19.812Z,10.43
2023-04-29T15:10:47.774Z,9.67
2023-04-29T15:13:15.044Z,8.43
2023-04-29T15:15:42.416Z,10.97
2023-04-29T15:18:09.473Z,12.50
2023-04-29T15:20:37.598Z,11.90
2023-04-29T15:23:05.547Z,12.83
2023-04-29T15:25:36.339Z,11.47
2023-04-29T15:28:04.873Z,8.87
2023-04-29T15:30:32.696Z,8.13
2023-04-29T15:32:59.907Z,9.37
2023-04-29T15:35:27.646Z,11.20
2023-04-29T15:37:54.813Z,8.13
2023-04-29T15:40:22.060Z,14.23
2023-04-29T15:42:49.001Z,10.90
2023-04-29T15:45:16.985Z,8.40
2023-04-29T15:47:44.117Z,9.93
2023-04-29T15:50:11.568Z,7.43
2023-04-29T15:52:38.839Z,7.17
2023-04-29T15:55:06.931Z,6.70
2023-04-29T15:57:34.852Z,6.97
2023-04-29T16:00:02.167Z,7.80
2023-04-29T16:02:29.174Z,8.50
2023-04-29T16:04:56.119Z,8.20
2023-04-29T16:07:23.106Z,8.07
2023-04-29T16:09:50.034Z,7.90
2023-04-29T16:12:16.984Z,9.33
2023-04-29T16:14:44.091Z,8.63
2023-04-29T16:17:11.062Z,12.17
2023-04-29T16:19:38.129Z,8.53
2023-04-29T16:22:05.137Z,10.47
2023-04-29T16:24:32.296Z,10.83
2023-04-29T16:26:59.449Z,10.03
2023-04-29T16:29:26.810Z,11.93
2023-04-29T16:31:53.878Z,12.43
2023-04-29T16:34:20.856Z,10.77
2023-04-29T16:36:48.084Z,12.30
2023-04-29T16:39:14.999Z,12.17
2023-04-29T16:41:42.074Z,10.90
2023-04-29T16:44:09.347Z,9.80
2023-04-29T16:46:36.459Z,10.43
2023-04-29T16:49:03.617Z,13.13
2023-04-29T16:51:33.439Z,12.03
2023-04-29T16:54:00.486Z,12.67
2023-04-29T16:56:27.626Z,11.13
2023-04-29T16:58:54.557Z,9.30
2023-04-29T17:01:21.655Z,9.27
2023-04-29T17:03:49.039Z,12.13
2023-04-29T17:06:16.398Z,8.33
2023-04-29T17:08:44.531Z,8.30
2023-04-29T17:11:11.771Z,8.77
2023-04-29T17:13:38.728Z,11.87
2023-04-29T17:16:06.741Z,8.43
2023-04-29T17:18:34.243Z,7.80
2023-04-29T17:21:01.585Z,7.50
2023-04-29T17:23:30.553Z,8.70
2023-04-29T17:25:57.696Z,7.87
2023-04-29T17:28:25.011Z,10.07
2023-04-29T17:30:55.646Z,9.87
2023-04-29T17:33:22.624Z,7.97
2023-04-29T17:35:49.644Z,8.43
2023-04-29T17:38:16.594Z,10.03
2023-04-29T17:40:43.708Z,9.07
2023-04-29T17:43:10.944Z,8.83
2023-04-29T17:45:40.519Z,8.73
2023-04-29T17:48:07.794Z,10.67
2023-04-29T17:50:34.898Z,8.73
2023-04-29T17:53:01.835Z,14.20
2023-04-29T17:55:28.744Z,10.03
2023-04-29T17:57:56.695Z,16.43
2023-04-29T18:00:23.987Z,11.40
2023-04-29T18:02:51.084Z,12.07
2023-04-29T18:05:18.108Z,13.97
2023-04-29T18:07:45.001Z,18.77
2023-04-29T18:10:11.901Z,13.50
2023-04-29T18:12:38.844Z,13.23
2023-04-29T18:15:07.785Z,15.87
2023-04-29T18:17:34.709Z,12.70
2023-04-29T18:20:01.729Z,16.17
2023-04-29T18:22:28.602Z,13.03
2023-04-29T18:24:56.645Z,12.13
2023-04-29T18:27:24.811Z,13.53
2023-04-29T18:29:51.793Z,15.07
2023-04-29T18:32:18.941Z,12.07
2023-04-29T18:34:45.907Z,12.50
2023-04-29T18:37:12.807Z,12.00
2023-04-29T18:39:39.773Z,11.80
2023-04-29T18:42:07.000Z,12.40
2023-04-29T18:44:34.248Z,11.40
2023-04-29T18:47:01.139Z,12.63
2023-04-29T18:49:28.111Z,14.20
2023-04-29T18:51:54.955Z,11.83
2023-04-29T18:54:22.023Z,11.40
2023-04-29T18:56:50.252Z,14.47
2023-04-29T18:59:19.808Z,12.33
2023-04-29T19:01:48.250Z,11.27
2023-04-29T19:04:16.309Z,13.53
2023-04-29T19:06:43.556Z,10.10
2023-04-29T19:09:13.788Z,14.97
2023-04-29T19:11:40.831Z,11.23
2023-04-29T19:14:07.804Z,11.80
2023-04-29T19:16:36.876Z,10.83
2023-04-29T19:19:04.577Z,11.37
2023-04-29T19:21:34.683Z,11.37
2023-04-29T19:24:01.775Z,12.70
2023-04-29T19:26:29.918Z,11.93
2023-04-29T19:28:58.140Z,14.47
2023-04-29T19:31:25.049Z,11.60
2023-04-29T19:33:52.497Z,11.53
2023-04-29T19:36:19.561Z,12.67
2023-04-29T19:38:46.982Z,11.33
2023-04-29T19:41:14.020Z,11.07
2023-04-29T19:43:41.056Z,11.00
2023-04-29T19:46:08.072Z,11.93
2023-04-29T19:48:35.101Z,17.20
2023-04-29T19:51:01.933Z,13.00
2023-04-29T19:53:29.993Z,13.57
2023-04-29T19:55:58.435Z,15.90
2023-04-29T19:58:25.461Z,14.47
2023-04-29T20:00:52.846Z,14.07
2023-04-29T20:03:20.042Z,13.33
2023-04-29T20:05:47.649Z,15.07
2023-04-29T20:08:14.666Z,18.33
2023-04-29T20:10:41.655Z,16.47
2023-04-29T20:13:08.612Z,19.17
2023-04-29T20:15:35.536Z,13.93
2023-04-29T20:18:02.613Z,17.17
2023-04-29T20:20:29.613Z,18.27
2023-04-29T20:23:00.234Z,15.23
2023-04-29T20:25:28.532Z,15.03
2023-04-29T20:27:56.704Z,15.80
2023-04-29T20:30:23.993Z,19.73
2023-04-29T20:32:50.981Z,22.47
2023-04-29T20:35:18.580Z,18.77
2023-04-29T20:37:45.984Z,17.87
2023-04-29T20:40:13.157Z,19.90
2023-04-29T20:42:40.315Z,19.37
2023-04-29T20:45:07.982Z,18.13
2023-04-29T20:47:37.878Z,23.33
2023-04-29T20:50:05.293Z,17.13
2023-04-29T20:52:32.423Z,17.13
2023-04-29T20:55:02.467Z,18.50
2023-04-29T20:57:29.351Z,21.27
2023-04-29T20:59:56.740Z,19.33
2023-04-29T21:02:23.870Z,18.97
2023-04-29T21:04:50.979Z,19.77
2023-04-29T21:07:17.884Z,22.20
2023-04-29T21:09:45.066Z,17.87
2023-04-29T21:12:12.230Z,20.03
2023-04-29T21:14:40.833Z,20.63
2023-04-29T21:17:09.047Z,25.20
2023-04-29T21:19:37.711Z,20.77
2023-04-29T21:22:05.003Z,19.70
2023-04-29T21:24:32.256Z,20.33
2023-04-29T21:26:59.140Z,23.80
2023-04-29T21:29:26.634Z,20.47
2023-04-29T21:31:53.545Z,22.47
2023-04-29T21:34:20.515Z,22.93
2023-04-29T21:36:47.359Z,21.50
2023-04-29T21:39:14.501Z,22.13
2023-04-29T21:41:43.045Z,24.10
2023-04-29T21:44:10.039Z,21.60
2023-04-29T21:46:37.378Z,25.03
2023-04-29T21:49:04.461Z,27.40
2023-04-29T21:51:32.017Z,28.30
2023-04-29T21:53:59.198Z,25.27
2023-04-29T21:56:26.158Z,29.23
2023-04-29T21:58:53.433Z,24.57
2023-04-29T22:01:39.074Z,26.70
2023-04-29T22:04:06.496Z,26.93
2023-04-29T22:06:34.572Z,22.47
2023-04-29T22:09:02.108Z,25.53
2023-04-29T22:11:29.399Z,27.60
2023-04-29T22:13:56.522Z,26.73
2023-04-29T22:16:23.729Z,28.77
2023-04-29T22:18:51.324Z,25.77
2023-04-29T22:21:18.979Z,26.83
2023-04-29T22:23:47.141Z,36.47
2023-04-29T22:26:14.057Z,26.00
2023-04-29T22:28:41.127Z,26.43
2023-04-29T22:31:08.116Z,28.90
2023-04-29T22:33:35.859Z,22.67
2023-04-29T22:36:04.101Z,26.63
2023-04-29T22:38:31.278Z,24.50
2023-04-29T22:40:58.227Z,24.97
2023-04-29T22:43:25.511Z,26.57
2023-04-29T22:45:53.493Z,25.87
2023-04-29T22:48:20.735Z,28.27
2023-04-29T22:50:59.487Z,25.83
2023-04-29T22:53:26.873Z,24.23
2023-04-29T22:55:56.301Z,27.07
2023-04-29T22:58:25.431Z,23.67
2023-04-29T23:00:54.921Z,25.63
2023-04-29T23:03:21.926Z,27.30
2023-04-29T23:05:49.263Z,23.80
2023-04-29T23:08:16.472Z,23.03
2023-04-29T23:10:49.133Z,26.60
2023-04-29T23:13:16.798Z,26.00
2023-04-29T23:15:43.982Z,25.13
2023-04-29T23:18:11.119Z,24.43
2023-04-29T23:20:38.274Z,23.27
2023-04-29T23:23:05.355Z,25.50
2023-04-29T23:25:32.324Z,24.83
2023-04-29T23:27:59.195Z,23.63
2023-04-29T23:30:26.222Z,24.97
2023-04-29T23:32:53.236Z,19.87
2023-04-29T23:35:20.222Z,22.23
2023-04-29T23:37:47.110Z,20.63
2023-04-29T23:40:15.867Z,32.27
2023-04-29T23:42:43.034Z,25.00
2023-04-29T23:45:10.223Z,24.60
2023-04-29T23:47:37.199Z,28.37
2023-04-29T23:50:04.573Z,25.23
2023-04-29T23:52:31.625Z,22.17
2023-04-29T23:54:58.625Z,24.90
2023-04-29T23:57:25.750Z,26.53
2023-04-29T23:59:53.235Z,24.20
